| time (UTC) | temp F | wind direction | speed knots | gust knots | rain 1hr in | rain 24hr in | rain mn in | humidity % | barometer mb |
| 20260504150822 | 67 | 313 | 0.9 | 4.3 | 0.00 | 0.00 | 0.00 | 46 | 1013.5 |
| 20260504150326 | 67 | 303 | 0.9 | 4.3 | 0.00 | 0.00 | 0.00 | 47 | 1013.6 |
| 20260504141323 | 64 | 5 | 0.9 | 4.3 | 0.00 | 0.00 | 0.00 | 54 | 1013.7 |
| 20260504140829 | 63 | 148 | 0.9 | 5.2 | 0.00 | 0.00 | 0.00 | 55 | 1013.7 |
| 20260504140352 | 63 | 8 | 1.7 | 5.2 | 0.00 | 0.00 | 0.00 | 54 | 1013.8 |
| 20260504130353 | 59 | 156 | 0.9 | 7.0 | 0.00 | 0.00 | 0.00 | 64 | 1014.2 |
| 20260504120314 | 53 | 216 | 0.0 | 3.5 | 0.00 | 0.00 | 0.00 | 82 | 1014.5 |
| 20260504110316 | 50 | 174 | 0.0 | 0.0 | 0.00 | 0.00 | 0.00 | 82 | 1014.8 |
| 20260504100320 | 49 | 183 | 0.9 | 2.6 | 0.00 | 0.00 | 0.00 | 81 | 1014.9 |
| 20260504081824 | 47 | 149 | 0.0 | 0.9 | 0.00 | 0.00 | 0.00 | 77 | 1014.9 |
| 20260504081328 | 48 | 155 | 0.0 | 1.7 | 0.00 | 0.00 | 0.00 | 76 | 1014.9 |
| 20260504080812 | 48 | 170 | 0.0 | 1.7 | 0.00 | 0.00 | 0.00 | 76 | 1014.9 |
| 20260504080337 | 48 | 159 | 0.0 | 1.7 | 0.00 | 0.00 | 0.00 | 76 | 1014.8 |
| 20260504070352 | 46 | 134 | 0.0 | 1.7 | 0.00 | 0.00 | 0.00 | 73 | 1014.6 |
| 20260504050317 | 47 | 146 | 0.0 | 0.9 | 0.00 | 0.00 | 0.00 | 72 | 1014.6 |
| 20260504045821 | 46 | 149 | 0.0 | 1.7 | 0.00 | 0.00 | 0.00 | 72 | 1014.6 |
| 20260504045325 | 46 | 160 | 0.0 | 1.7 | 0.00 | 0.00 | 0.00 | 73 | 1014.7 |
| 20260504044828 | 46 | 160 | 0.0 | 0.9 | 0.00 | 0.00 | 0.00 | 73 | 1014.6 |
| 20260504044333 | 46 | 140 | 0.0 | 0.9 | 0.00 | 0.00 | 0.00 | 73 | 1014.6 |
| 20260504043816 | 46 | 140 | 0.0 | 0.9 | 0.00 | 0.00 | 0.00 | 72 | 1014.5 |
| 20260504043318 | 46 | 140 | 0.0 | 0.9 | 0.00 | 0.00 | 0.00 | 72 | 1014.5 |
| 20260504042823 | 46 | 139 | 0.0 | 0.9 | 0.00 | 0.00 | 0.00 | 73 | 1014.4 |
| 20260504042327 | 46 | 139 | 0.0 | 1.7 | 0.00 | 0.00 | 0.00 | 73 | 1014.4 |
| 20260504041811 | 46 | 156 | 0.0 | 1.7 | 0.00 | 0.00 | 0.00 | 74 | 1014.4 |
| 20260504041316 | 45 | 159 | 0.0 | 0.9 | 0.00 | 0.00 | 0.00 | 74 | 1014.3 |
| 20260504040841 | 45 | 151 | 0.0 | 0.9 | 0.00 | 0.00 | 0.00 | 75 | 1014.3 |
| 20260504040325 | 44 | 141 | 0.0 | 0.0 | 0.00 | 0.00 | 0.00 | 75 | 1014.2 |
| 20260504035829 | 44 | 141 | 0.0 | 0.0 | 0.00 | 0.00 | 0.00 | 75 | 1014.2 |
| 20260504035312 | 43 | 141 | 0.0 | 0.0 | 0.00 | 0.00 | 0.00 | 74 | 1014.1 |
| 20260504034817 | 43 | 141 | 0.0 | 0.0 | 0.00 | 0.00 | 0.00 | 74 | 1014.1 |
| 20260504034320 | 43 | 141 | 0.0 | 0.0 | 0.00 | 0.00 | 0.00 | 75 | 1014.1 |
| 20260504033825 | 43 | 140 | 0.0 | 0.0 | 0.00 | 0.00 | 0.00 | 74 | 1014.1 |
| 20260504033348 | 43 | 141 | 0.0 | 0.0 | 0.00 | 0.00 | 0.00 | 73 | 1014.0 |
| 20260504032830 | 43 | 141 | 0.0 | 0.0 | 0.00 | 0.00 | 0.00 | 71 | 1014.0 |
| 20260504032334 | 44 | 141 | 0.0 | 0.0 | 0.00 | 0.00 | 0.00 | 71 | 1014.0 |
| 20260504031816 | 44 | 140 | 0.0 | 0.0 | 0.00 | 0.00 | 0.00 | 71 | 1014.0 |
| 20260504031335 | 44 | 141 | 0.0 | 0.0 | 0.00 | 0.00 | 0.00 | 70 | 1013.9 |
| 20260504030818 | 44 | 140 | 0.0 | 0.0 | 0.00 | 0.00 | 0.00 | 69 | 1013.9 |
| 20260504030323 | 45 | 141 | 0.0 | 0.0 | 0.00 | 0.00 | 0.00 | 68 | 1013.9 |
| 20260504025847 | 45 | 141 | 0.0 | 0.0 | 0.00 | 0.00 | 0.00 | 67 | 1013.9 |
| 20260504025324 | 45 | 141 | 0.0 | 0.0 | 0.00 | 0.00 | 0.00 | 66 | 1013.9 |
| 20260504024826 | 46 | 141 | 0.0 | 0.0 | 0.00 | 0.00 | 0.00 | 66 | 1014.0 |
| 20260504024331 | 46 | 141 | 0.0 | 0.0 | 0.00 | 0.00 | 0.00 | 65 | 1014.0 |
| 20260504023835 | 46 | 141 | 0.0 | 0.0 | 0.00 | 0.00 | 0.00 | 65 | 1013.9 |
| 20260504023339 | 47 | 141 | 0.0 | 0.0 | 0.00 | 0.00 | 0.00 | 64 | 1013.9 |
| 20260504022820 | 47 | 141 | 0.0 | 0.0 | 0.00 | 0.00 | 0.00 | 64 | 1013.9 |
| 20260504022325 | 47 | 141 | 0.0 | 0.0 | 0.00 | 0.00 | 0.00 | 64 | 1014.0 |
| 20260504021849 | 47 | 140 | 0.0 | 0.0 | 0.00 | 0.00 | 0.00 | 65 | 1014.0 |
| 20260504021331 | 47 | 141 | 0.0 | 0.0 | 0.00 | 0.00 | 0.00 | 64 | 1013.9 |
| 20260504020814 | 47 | 140 | 0.0 | 0.0 | 0.00 | 0.00 | 0.00 | 63 | 1014.0 |
| 20260504020318 | 47 | 141 | 0.0 | 0.0 | 0.00 | 0.00 | 0.00 | 62 | 1014.0 |
| 20260504015822 | 47 | 141 | 0.0 | 0.0 | 0.00 | 0.00 | 0.00 | 62 | 1013.9 |
| 20260504015327 | 48 | 140 | 0.0 | 0.9 | 0.00 | 0.00 | 0.00 | 61 | 1013.8 |
| 20260504014831 | 48 | 141 | 0.0 | 0.9 | 0.00 | 0.00 | 0.00 | 61 | 1013.8 |
| 20260504014334 | 47 | 141 | 0.0 | 0.9 | 0.00 | 0.00 | 0.00 | 61 | 1013.8 |
| 20260504013815 | 47 | 141 | 0.0 | 0.0 | 0.00 | 0.00 | 0.00 | 60 | 1013.8 |
| 20260504013335 | 48 | 141 | 0.0 | 0.0 | 0.00 | 0.00 | 0.00 | 59 | 1013.8 |
| 20260504012817 | 48 | 141 | 0.0 | 0.0 | 0.00 | 0.00 | 0.00 | 58 | 1013.7 |
| 20260504012322 | 49 | 141 | 0.0 | 0.0 | 0.00 | 0.00 | 0.00 | 57 | 1013.7 |
| 20260504011825 | 49 | 141 | 0.0 | 0.0 | 0.00 | 0.00 | 0.00 | 56 | 1013.7 |
| 20260504011312 | 49 | 141 | 0.0 | 0.0 | 0.00 | 0.00 | 0.00 | 55 | 1013.5 |
| 20260504010837 | 50 | 141 | 0.0 | 0.0 | 0.00 | 0.00 | 0.00 | 54 | 1013.5 |
| 20260504010329 | 50 | 141 | 0.0 | 0.0 | 0.00 | 0.00 | 0.00 | 53 | 1013.4 |
| 20260504005840 | 51 | 141 | 0.0 | 0.0 | 0.00 | 0.00 | 0.00 | 52 | 1013.3 |
| 20260504005326 | 51 | 141 | 0.0 | 0.0 | 0.00 | 0.00 | 0.00 | 50 | 1013.3 |
| 20260504004830 | 52 | 141 | 0.0 | 0.0 | 0.00 | 0.00 | 0.00 | 49 | 1013.2 |
| 20260504004314 | 53 | 140 | 0.0 | 0.9 | 0.00 | 0.00 | 0.00 | 48 | 1013.2 |
| 20260504003816 | 53 | 141 | 0.0 | 0.9 | 0.00 | 0.00 | 0.00 | 46 | 1013.2 |
| 20260504003321 | 54 | 157 | 0.0 | 0.9 | 0.00 | 0.00 | 0.00 | 45 | 1013.1 |
| 20260504002825 | 54 | 50 | 0.0 | 0.0 | 0.00 | 0.00 | 0.00 | 45 | 1012.9 |
| 20260504002313 | 55 | 50 | 0.0 | 0.0 | 0.00 | 0.00 | 0.00 | 43 | 1012.8 |
| 20260504001817 | 55 | 50 | 0.0 | 0.9 | 0.00 | 0.00 | 0.00 | 42 | 1012.8 |
| 20260504001321 | 56 | 49 | 0.0 | 0.9 | 0.00 | 0.00 | 0.00 | 42 | 1012.7 |
| 20260504000825 | 56 | 27 | 0.0 | 0.0 | 0.00 | 0.00 | 0.00 | 40 | 1012.7 |
| 20260504000330 | 57 | 27 | 0.0 | 0.9 | 0.00 | 0.00 | 0.00 | 40 | 1012.7 |
| 20260503235813 | 57 | 27 | 0.0 | 1.7 | 0.00 | 0.00 | 0.00 | 39 | 1012.7 |
| 20260503235318 | 58 | 25 | 0.0 | 1.7 | 0.00 | 0.00 | 0.00 | 38 | 1012.7 |
| 20260503234822 | 58 | 33 | 0.0 | 2.6 | 0.00 | 0.00 | 0.00 | 38 | 1012.6 |
| 20260503234327 | 58 | 15 | 0.0 | 2.6 | 0.00 | 0.00 | 0.00 | 38 | 1012.7 |
| 20260503233811 | 59 | 49 | 0.9 | 4.3 | 0.00 | 0.00 | 0.00 | 37 | 1012.7 |
| 20260503233315 | 59 | 161 | 0.9 | 4.3 | 0.00 | 0.00 | 0.00 | 36 | 1012.5 |
| 20260503232818 | 59 | 286 | 0.9 | 6.1 | 0.00 | 0.00 | 0.00 | 35 | 1012.5 |
| 20260503232317 | 59 | 82 | 1.7 | 7.0 | 0.00 | 0.00 | 0.00 | 34 | 1012.4 |
| 20260503231821 | 59 | 64 | 1.7 | 7.0 | 0.00 | 0.00 | 0.00 | 34 | 1012.4 |
| 20260503231325 | 60 | 226 | 1.7 | 6.1 | 0.00 | 0.00 | 0.00 | 34 | 1012.4 |
| 20260503230827 | 60 | 354 | 1.7 | 6.1 | 0.00 | 0.00 | 0.00 | 34 | 1012.4 |
| 20260503230311 | 60 | 6 | 1.7 | 7.0 | 0.00 | 0.00 | 0.00 | 34 | 1012.4 |
| 20260503225816 | 60 | 1 | 2.6 | 7.0 | 0.00 | 0.00 | 0.00 | 34 | 1012.4 |
| 20260503225319 | 60 | 233 | 1.7 | 7.8 | 0.00 | 0.00 | 0.00 | 33 | 1012.4 |
| 20260503224821 | 60 | 15 | 2.6 | 7.8 | 0.00 | 0.00 | 0.00 | 34 | 1012.4 |
| 20260503224314 | 60 | 18 | 3.5 | 7.8 | 0.00 | 0.00 | 0.00 | 33 | 1012.4 |
| 20260503223818 | 60 | 8 | 3.5 | 8.7 | 0.00 | 0.00 | 0.00 | 33 | 1012.4 |
| 20260503223322 | 60 | 8 | 3.5 | 8.7 | 0.00 | 0.00 | 0.00 | 33 | 1012.4 |
| 20260503222845 | 60 | 341 | 2.6 | 7.8 | 0.00 | 0.00 | 0.00 | 33 | 1012.4 |
| 20260503222328 | 60 | 319 | 3.5 | 11.3 | 0.00 | 0.00 | 0.00 | 33 | 1012.5 |
| 20260503221832 | 60 | 13 | 3.5 | 11.3 | 0.00 | 0.00 | 0.00 | 33 | 1012.5 |
| 20260503221315 | 61 | 317 | 4.3 | 9.6 | 0.00 | 0.00 | 0.00 | 32 | 1012.4 |
| 20260503220819 | 61 | 325 | 4.3 | 9.6 | 0.00 | 0.00 | 0.00 | 32 | 1012.4 |
| 20260503220343 | 61 | 298 | 2.6 | 7.0 | 0.00 | 0.00 | 0.00 | 33 | 1012.3 |
| 20260503215826 | 61 | 352 | 2.6 | 8.7 | 0.00 | 0.00 | 0.00 | 33 | 1012.4 |
| 20260503215330 | 61 | 323 | 2.6 | 11.3 | 0.00 | 0.00 | 0.00 | 32 | 1012.4 |
| 20260503214813 | 62 | 351 | 2.6 | 11.3 | 0.00 | 0.00 | 0.00 | 31 | 1012.4 |
| 20260503214318 | 62 | 349 | 2.6 | 8.7 | 0.00 | 0.00 | 0.00 | 31 | 1012.4 |
| 20260503213821 | 61 | 302 | 2.6 | 10.4 | 0.00 | 0.00 | 0.00 | 31 | 1012.4 |
| 20260503213326 | 61 | 336 | 3.5 | 10.4 | 0.00 | 0.00 | 0.00 | 31 | 1012.5 |
| 20260503212851 | 61 | 2 | 5.2 | 12.2 | 0.00 | 0.00 | 0.00 | 31 | 1012.4 |
| 20260503212314 | 61 | 342 | 4.3 | 12.2 | 0.00 | 0.00 | 0.00 | 31 | 1012.3 |
| 20260503211818 | 61 | 313 | 5.2 | 11.3 | 0.00 | 0.00 | 0.00 | 32 | 1012.4 |
| 20260503211322 | 61 | 4 | 3.5 | 12.2 | 0.00 | 0.00 | 0.00 | 33 | 1012.3 |
| 20260503210827 | 61 | 348 | 4.3 | 13.0 | 0.00 | 0.00 | 0.00 | 32 | 1012.4 |
| 20260503210332 | 61 | 332 | 4.3 | 13.0 | 0.00 | 0.00 | 0.00 | 32 | 1012.4 |
| 20260503205814 | 61 | 5 | 1.7 | 9.6 | 0.00 | 0.00 | 0.00 | 34 | 1012.4 |
| 20260503205317 | 61 | 16 | 4.3 | 12.2 | 0.00 | 0.00 | 0.00 | 33 | 1012.5 |
| 20260503204821 | 61 | 44 | 4.3 | 12.2 | 0.00 | 0.00 | 0.00 | 33 | 1012.5 |
| 20260503204324 | 61 | 39 | 4.3 | 13.0 | 0.00 | 0.00 | 0.00 | 34 | 1012.6 |
| 20260503203825 | 60 | 308 | 4.3 | 13.0 | 0.00 | 0.00 | 0.00 | 33 | 1012.5 |
| 20260503203347 | 60 | 22 | 2.6 | 13.9 | 0.00 | 0.00 | 0.00 | 34 | 1012.6 |
| 20260503202829 | 60 | 9 | 6.1 | 13.9 | 0.00 | 0.00 | 0.00 | 33 | 1012.5 |
| 20260503202332 | 60 | 350 | 3.5 | 9.6 | 0.00 | 0.00 | 0.00 | 34 | 1012.6 |
| 20260503201813 | 61 | 76 | 4.3 | 9.6 | 0.00 | 0.00 | 0.00 | 34 | 1012.6 |
| 20260503201331 | 61 | 342 | 3.5 | 9.6 | 0.00 | 0.00 | 0.00 | 36 | 1012.7 |
| 20260503200814 | 60 | 15 | 4.3 | 16.5 | 0.00 | 0.00 | 0.00 | 33 | 1012.7 |
| 20260503200340 | 60 | 354 | 6.1 | 16.5 | 0.00 | 0.00 | 0.00 | 34 | 1012.8 |
| 20260503195822 | 60 | 352 | 3.5 | 12.2 | 0.00 | 0.00 | 0.00 | 36 | 1012.8 |
| 20260503195346 | 60 | 306 | 3.5 | 12.2 | 0.00 | 0.00 | 0.00 | 35 | 1012.8 |
| 20260503194830 | 59 | 359 | 4.3 | 10.4 | 0.00 | 0.00 | 0.00 | 35 | 1012.7 |
| 20260503194315 | 59 | 338 | 4.3 | 12.2 | 0.00 | 0.00 | 0.00 | 34 | 1012.9 |
| 20260503193818 | 60 | 6 | 5.2 | 12.2 | 0.00 | 0.00 | 0.00 | 33 | 1012.9 |
| 20260503193324 | 60 | 8 | 2.6 | 12.2 | 0.00 | 0.00 | 0.00 | 35 | 1012.9 |
| 20260503192849 | 60 | 217 | 2.6 | 9.6 | 0.00 | 0.00 | 0.00 | 35 | 1012.9 |
| 20260503192312 | 60 | 339 | 3.5 | 9.6 | 0.00 | 0.00 | 0.00 | 35 | 1012.9 |
| 20260503191816 | 61 | 18 | 1.7 | 6.1 | 0.00 | 0.00 | 0.00 | 34 | 1012.9 |
| 20260503191319 | 61 | 44 | 2.6 | 6.1 | 0.00 | 0.00 | 0.00 | 36 | 1013.1 |
| 20260503190823 | 60 | 357 | 1.7 | 6.1 | 0.00 | 0.00 | 0.00 | 35 | 1013.0 |
| 20260503190328 | 60 | 27 | 2.6 | 8.7 | 0.00 | 0.00 | 0.00 | 34 | 1013.1 |
| 20260503185813 | 59 | 357 | 3.5 | 8.7 | 0.00 | 0.00 | 0.00 | 35 | 1013.1 |
| 20260503185338 | 59 | 333 | 4.3 | 9.6 | 0.00 | 0.00 | 0.00 | 33 | 1013.1 |
| 20260503184821 | 59 | 8 | 3.5 | 11.3 | 0.00 | 0.00 | 0.00 | 35 | 1013.2 |
| 20260503184325 | 59 | 24 | 4.3 | 11.3 | 0.00 | 0.00 | 0.00 | 34 | 1013.2 |
| 20260503183828 | 59 | 351 | 5.2 | 8.7 | 0.00 | 0.00 | 0.00 | 34 | 1013.3 |
| 20260503183313 | 59 | 341 | 3.5 | 9.6 | 0.00 | 0.00 | 0.00 | 35 | 1013.3 |
| 20260503182818 | 58 | 342 | 3.5 | 10.4 | 0.00 | 0.00 | 0.00 | 33 | 1013.3 |
| 20260503182321 | 59 | 24 | 4.3 | 10.4 | 0.00 | 0.00 | 0.00 | 34 | 1013.4 |
| 20260503181825 | 58 | 356 | 2.6 | 10.4 | 0.00 | 0.00 | 0.00 | 38 | 1013.4 |
| 20260503181312 | 58 | 353 | 4.3 | 10.4 | 0.00 | 0.00 | 0.00 | 34 | 1013.4 |
| 20260503180816 | 58 | 18 | 2.6 | 7.8 | 0.00 | 0.00 | 0.00 | 37 | 1013.4 |
| 20260503180321 | 58 | 255 | 3.5 | 10.4 | 0.00 | 0.00 | 0.00 | 35 | 1013.5 |
| 20260503175825 | 58 | 23 | 3.5 | 10.4 | 0.00 | 0.00 | 0.00 | 35 | 1013.6 |
| 20260503175329 | 58 | 23 | 4.3 | 8.7 | 0.00 | 0.00 | 0.00 | 37 | 1013.5 |
| 20260503174814 | 57 | 330 | 1.7 | 10.4 | 0.00 | 0.00 | 0.00 | 41 | 1013.5 |
| 20260503174316 | 57 | 331 | 4.3 | 12.2 | 0.00 | 0.00 | 0.00 | 36 | 1013.7 |
| 20260503173841 | 57 | 331 | 7.0 | 15.6 | 0.00 | 0.00 | 0.00 | 38 | 1013.7 |
| 20260503173324 | 57 | 343 | 7.8 | 15.6 | 0.00 | 0.00 | 0.00 | 35 | 1013.8 |
| 20260503172826 | 57 | 350 | 5.2 | 14.8 | 0.00 | 0.00 | 0.00 | 36 | 1013.7 |
| 20260503172329 | 57 | 15 | 2.6 | 8.7 | 0.00 | 0.00 | 0.00 | 39 | 1013.8 |
| 20260503171817 | 56 | 139 | 1.7 | 10.4 | 0.00 | 0.00 | 0.00 | 39 | 1013.8 |
| 20260503171321 | 57 | 303 | 5.2 | 10.4 | 0.00 | 0.00 | 0.00 | 38 | 1013.9 |
| 20260503170824 | 56 | 31 | 4.3 | 8.7 | 0.00 | 0.00 | 0.00 | 38 | 1013.9 |
| 20260503170328 | 56 | 23 | 2.6 | 8.7 | 0.00 | 0.00 | 0.00 | 41 | 1013.8 |